Time;durP1;ratioP1;P1;durP2;ratioP2;P2;SDS_P1;SDS_P2;PMS_P1;PMS_P2;Temp;Humidity;BMP_temperature;BMP_pressure;BME280_temperature;BME280_humidity;BME280_pressure;Samples;Min_cycle;Max_cycle;Signal;HPM_P1;HPM_P2
2024/01/26 00:02:23;;;;;;;1999.90;999.90;;;;;;;5.09;49.07;96476.16;5116513;28;20047;-68
2024/01/26 00:04:51;;;;;;;1999.90;999.90;;;;;;;5.10;48.61;96475.31;5116198;28;20080;-66
2024/01/26 00:07:18;;;;;;;1999.90;999.90;;;;;;;5.13;48.34;96474.38;5116059;28;20118;-65
2024/01/26 00:09:45;;;;;;;1999.90;999.90;;;;;;;5.11;48.58;96478.75;5116125;28;20073;-66
2024/01/26 00:12:12;;;;;;;1999.90;999.90;;;;;;;5.11;48.16;96481.31;5115982;28;20052;-66
2024/01/26 00:14:39;;;;;;;1999.90;999.90;;;;;;;5.06;48.35;96469.31;5115815;28;20056;-66
2024/01/26 00:17:06;;;;;;;1999.90;999.90;;;;;;;5.08;48.46;96471.88;5115842;28;20138;-65
2024/01/26 00:19:33;;;;;;;1999.90;999.90;;;;;;;5.09;48.08;96457.19;5115927;28;20043;-68
2024/01/26 00:22:02;;;;;;;1999.90;999.90;;;;;;;5.11;48.34;96458.00;5115972;28;20043;-63
2024/01/26 00:24:29;;;;;;;1999.90;999.90;;;;;;;5.03;48.62;96447.78;5115722;28;20055;-64
2024/01/26 00:26:56;;;;;;;1999.90;999.90;;;;;;;5.02;48.90;96446.03;5115688;28;20044;-65
2024/01/26 00:29:23;;;;;;;1999.90;999.90;;;;;;;5.06;48.47;96439.94;5115823;28;20485;-63
2024/01/26 00:31:50;;;;;;;1999.90;999.90;;;;;;;5.13;48.16;96435.50;5115679;28;20494;-67
2024/01/26 00:34:17;;;;;;;1999.90;999.90;;;;;;;5.13;48.71;96433.75;5115532;28;20056;-64
2024/01/26 00:36:44;;;;;;;1999.90;999.90;;;;;;;5.14;48.23;96429.41;5115479;28;20086;-64
2024/01/26 00:39:13;;;;;;;1999.90;999.90;;;;;;;5.12;48.72;96431.19;5097626;28;20044;-63
2024/01/26 00:41:40;;;;;;;1999.90;999.90;;;;;;;5.09;49.14;96436.44;5115463;28;20043;-67
2024/01/26 00:44:07;;;;;;;1999.90;999.90;;;;;;;5.10;49.54;96438.13;5115339;28;20043;-67
2024/01/26 00:46:37;;;;;;;1999.90;999.90;;;;;;;5.11;49.27;96437.25;5115386;28;20051;-65
2024/01/26 00:49:04;;;;;;;1999.90;999.90;;;;;;;5.12;48.84;96447.59;5115287;28;20129;-68
2024/01/26 00:51:31;;;;;;;1999.90;999.90;;;;;;;5.14;48.85;96452.75;5115291;28;20421;-69
2024/01/26 00:53:58;;;;;;;1999.90;999.90;;;;;;;5.12;49.11;96450.19;5114957;28;20056;-65
2024/01/26 00:56:26;;;;;;;1999.90;999.90;;;;;;;5.04;49.61;96449.47;5115157;28;20058;-67
2024/01/26 00:58:53;;;;;;;1999.90;999.90;;;;;;;5.04;48.25;96439.09;5115006;28;20127;-68
2024/01/26 01:01:20;;;;;;;1999.90;999.90;;;;;;;5.02;49.11;96446.91;5114892;28;20051;-63
2024/01/26 01:03:47;;;;;;;1999.90;999.90;;;;;;;5.02;48.44;96441.72;5114970;28;20113;-67
2024/01/26 01:06:15;;;;;;;1999.90;999.90;;;;;;;4.99;48.60;96449.56;5114943;28;20047;-63
2024/01/26 01:08:41;;;;;;;1999.90;999.90;;;;;;;5.04;48.40;96452.06;5114838;28;20082;-64
2024/01/26 01:11:08;;;;;;;1999.90;999.90;;;;;;;4.98;48.83;96457.34;5114803;28;20043;-64
2024/01/26 01:13:36;;;;;;;1999.90;999.90;;;;;;;5.01;48.24;96458.19;5114737;28;20083;-64
2024/01/26 01:16:03;;;;;;;1999.90;999.90;;;;;;;5.00;48.52;96464.22;5114967;28;20501;-67
2024/01/26 01:18:30;;;;;;;1999.90;999.90;;;;;;;5.00;48.42;96461.63;5114719;28;20079;-68
2024/01/26 01:20:57;;;;;;;1999.90;999.90;;;;;;;4.98;48.66;96472.91;5114577;28;20567;-67
2024/01/26 01:23:25;;;;;;;1999.90;999.90;;;;;;;4.99;49.03;96469.44;5114558;28;20051;-63
2024/01/26 01:25:52;;;;;;;1999.90;999.90;;;;;;;4.93;48.74;96463.47;5114541;28;20071;-63
2024/01/26 01:28:20;;;;;;;1999.90;999.90;;;;;;;4.84;49.63;96462.78;5114561;28;20039;-68
2024/01/26 01:30:48;;;;;;;1999.90;999.90;;;;;;;4.75;49.17;96461.19;5114413;28;20047;-63
2024/01/26 01:33:15;;;;;;;1999.90;999.90;;;;;;;4.60;49.39;96467.47;5114407;28;20058;-63
2024/01/26 01:35:42;;;;;;;1999.90;999.90;;;;;;;4.64;49.17;96467.38;5114282;28;20054;-67
2024/01/26 01:38:09;;;;;;;1999.90;999.90;;;;;;;4.62;49.96;96466.56;5114347;28;20131;-66
2024/01/26 01:40:36;;;;;;;1999.90;999.90;;;;;;;4.52;50.10;96476.19;5114246;28;20503;-66
2024/01/26 01:43:03;;;;;;;1999.90;999.90;;;;;;;4.39;50.45;96474.66;5114199;28;20044;-64
2024/01/26 01:45:30;;;;;;;1999.90;999.90;;;;;;;4.18;51.57;96468.91;5114066;28;20501;-64
2024/01/26 01:47:59;;;;;;;1999.90;999.90;;;;;;;4.08;51.70;96475.09;5113893;28;20047;-66
2024/01/26 01:50:25;;;;;;;1999.90;999.90;;;;;;;4.01;51.59;96471.75;5113955;28;20109;-65
2024/01/26 01:52:56;;;;;;;1999.90;999.90;;;;;;;3.78;51.74;96471.16;5113805;28;20127;-64
2024/01/26 01:55:25;;;;;;;1999.90;999.90;;;;;;;3.70;51.81;96466.94;5114013;28;20135;-66
2024/01/26 01:57:54;;;;;;;1999.90;999.90;;;;;;;3.59;52.04;96457.59;5113946;28;20077;-64
2024/01/26 02:00:21;;;;;;;1999.90;999.90;;;;;;;3.41;52.45;96469.81;5114063;28;20142;-65
2024/01/26 02:02:49;;;;;;;1999.90;999.90;;;;;;;3.19;53.11;96464.03;5113994;28;20051;-62
2024/01/26 02:05:18;;;;;;;1999.90;999.90;;;;;;;2.94;53.73;96473.72;5113710;28;20554;-68
2024/01/26 02:07:49;;;;;;;1999.90;999.90;;;;;;;2.82;54.07;96465.22;5113764;28;20094;-65
2024/01/26 02:10:17;;;;;;;1999.90;999.90;;;;;;;2.75;54.86;96476.47;5113759;28;20496;-66
2024/01/26 02:12:44;;;;;;;1999.90;999.90;;;;;;;2.55;55.53;96471.44;5113706;28;20066;-67
2024/01/26 02:15:11;;;;;;;1999.90;999.90;;;;;;;2.46;55.79;96474.94;5113573;28;20043;-63
2024/01/26 02:17:39;;;;;;;1999.90;999.90;;;;;;;2.44;56.16;96472.38;5113582;28;20126;-65
2024/01/26 02:20:07;;;;;;;1999.90;999.90;;;;;;;2.38;56.87;96468.13;5113600;28;20439;-64
2024/01/26 02:22:36;;;;;;;1999.90;999.90;;;;;;;2.37;57.32;96470.72;5113553;28;20104;-63
2024/01/26 02:25:05;;;;;;;1999.90;999.90;;;;;;;2.36;57.42;96469.00;5113506;28;20051;-63
2024/01/26 02:27:33;;;;;;;1999.90;999.90;;;;;;;2.38;57.24;96470.69;5113455;28;20100;-66
2024/01/26 02:30:00;;;;;;;1999.90;999.90;;;;;;;2.43;57.96;96473.25;5113520;28;20131;-66
2024/01/26 02:32:27;;;;;;;1999.90;999.90;;;;;;;2.44;57.80;96472.38;5113600;28;20135;-68
2024/01/26 02:34:54;;;;;;;1999.90;999.90;;;;;;;2.45;57.72;96470.66;5113483;28;20043;-65
2024/01/26 02:37:21;;;;;;;1999.90;999.90;;;;;;;2.45;57.89;96468.94;5113488;28;20105;-62
2024/01/26 02:39:48;;;;;;;1999.90;999.90;;;;;;;2.39;57.50;96461.25;5113389;28;20676;-67
2024/01/26 02:42:16;;;;;;;1999.90;999.90;;;;;;;2.28;57.69;96461.31;5113461;28;20039;-65
2024/01/26 02:44:43;;;;;;;1999.90;999.90;;;;;;;2.29;57.69;96462.16;5113307;28;20509;-68
2024/01/26 02:47:10;;;;;;;1999.90;999.90;;;;;;;2.19;57.71;96461.34;5113579;28;20142;-64
2024/01/26 02:49:37;;;;;;;1999.90;999.90;;;;;;;2.12;58.18;96451.09;5113485;28;20052;-68
2024/01/26 02:52:04;;;;;;;1999.90;999.90;;;;;;;2.19;58.74;96458.75;5113404;28;20147;-67
2024/01/26 02:54:31;;;;;;;1999.90;999.90;;;;;;;2.13;58.23;96457.94;5113234;28;20048;-66
2024/01/26 02:56:58;;;;;;;1999.90;999.90;;;;;;;2.08;58.40;96464.00;5113330;28;20409;-64
2024/01/26 02:59:27;;;;;;;1999.90;999.90;;;;;;;2.06;58.69;96455.41;5113301;28;20051;-64
2024/01/26 03:01:54;;;;;;;1999.90;999.90;;;;;;;1.97;59.31;96457.19;5116951;28;20130;-67
2024/01/26 03:04:21;;;;;;;1999.90;999.90;;;;;;;1.92;59.81;96458.06;5117288;28;20489;-65
2024/01/26 03:06:48;;;;;;;1999.90;999.90;;;;;;;1.91;59.97;96464.09;5117197;28;20143;-67
2024/01/26 03:09:15;;;;;;;1999.90;999.90;;;;;;;1.78;59.90;96471.91;5117573;28;20048;-67
2024/01/26 03:11:43;;;;;;;1999.90;999.90;;;;;;;1.79;60.04;96465.00;5117082;28;20561;-69
2024/01/26 03:14:11;;;;;;;1999.90;999.90;;;;;;;1.69;60.32;96469.34;5116794;28;20051;-68
2024/01/26 03:16:41;;;;;;;1999.90;999.90;;;;;;;1.69;60.74;96456.44;5117027;28;20052;-65
2024/01/26 03:19:09;;;;;;;1999.90;999.90;;;;;;;1.62;61.56;96464.22;5117024;28;20051;-64
2024/01/26 03:21:41;;;;;;;1999.90;999.90;;;;;;;1.56;61.23;96463.38;5117011;28;20047;-68
2024/01/26 03:24:08;;;;;;;1999.90;999.90;;;;;;;1.67;61.26;96478.81;5116886;28;20050;-66
2024/01/26 03:26:35;;;;;;;1999.90;999.90;;;;;;;1.76;61.54;96471.03;5116847;28;20075;-68
2024/01/26 03:29:03;;;;;;;1999.90;999.90;;;;;;;1.85;61.31;96471.00;5117134;28;20047;-65
2024/01/26 03:31:30;;;;;;;1999.90;999.90;;;;;;;1.90;61.04;96468.41;5117014;28;20059;-65
2024/01/26 03:33:58;;;;;;;1999.90;999.90;;;;;;;1.89;61.12;96471.84;5116769;28;20055;-67
2024/01/26 03:36:25;;;;;;;1999.90;999.90;;;;;;;1.74;61.58;96471.03;5116622;28;20050;-66
2024/01/26 03:38:52;;;;;;;1999.90;999.90;;;;;;;1.77;62.43;96471.03;5116637;28;20378;-63
2024/01/26 03:41:19;;;;;;;1999.90;999.90;;;;;;;1.82;62.88;96470.16;5116657;28;20048;-68
2024/01/26 03:43:46;;;;;;;1999.90;999.90;;;;;;;1.79;62.57;96463.28;5116498;28;20043;-66
2024/01/26 03:46:14;;;;;;;1999.90;999.90;;;;;;;1.80;62.46;96456.41;5116472;28;20532;-67
2024/01/26 03:48:41;;;;;;;1999.90;999.90;;;;;;;1.80;62.74;96459.84;5116386;28;20478;-65
2024/01/26 03:51:09;;;;;;;1999.90;999.90;;;;;;;1.80;63.82;96469.31;5116449;28;20051;-65
2024/01/26 03:53:36;;;;;;;1999.90;999.90;;;;;;;1.84;63.83;96476.16;5116278;28;20071;-65
2024/01/26 03:56:04;;;;;;;1999.90;999.90;;;;;;;1.85;63.38;96470.13;5098279;28;20448;-65
2024/01/26 03:58:31;;;;;;;1999.90;999.90;;;;;;;1.68;63.34;96475.38;5116230;28;20533;-66
2024/01/26 04:00:58;;;;;;;1999.90;999.90;;;;;;;1.75;63.29;96474.50;5116568;28;20047;-64
2024/01/26 04:03:25;;;;;;;1999.90;999.90;;;;;;;1.71;62.36;96468.47;5116173;28;20048;-66
2024/01/26 04:05:52;;;;;;;1999.90;999.90;;;;;;;1.68;62.84;96471.06;5116119;28;20123;-68
2024/01/26 04:08:20;;;;;;;1999.90;999.90;;;;;;;1.64;62.91;96475.38;5116060;28;20040;-64
2024/01/26 04:10:48;;;;;;;1999.90;999.90;;;;;;;1.74;63.10;96473.63;5115669;28;20054;-65
2024/01/26 04:13:15;;;;;;;1999.90;999.90;;;;;;;1.81;62.67;96471.03;5115970;28;20052;-66
2024/01/26 04:15:44;;;;;;;1999.90;999.90;;;;;;;1.86;63.26;96479.56;5115803;28;20146;-65
2024/01/26 04:18:12;;;;;;;1999.90;999.90;;;;;;;1.88;63.67;96478.72;5115908;28;20047;-64
2024/01/26 04:20:39;;;;;;;1999.90;999.90;;;;;;;1.80;62.91;96475.31;5115932;28;20051;-65
2024/01/26 04:23:06;;;;;;;1999.90;999.90;;;;;;;1.76;62.94;96469.31;5115821;28;20086;-67
2024/01/26 04:25:34;;;;;;;1999.90;999.90;;;;;;;1.68;63.09;96476.22;5115686;28;20048;-67
2024/01/26 04:28:01;;;;;;;1999.90;999.90;;;;;;;1.71;63.36;96473.63;5115713;28;20048;-65
2024/01/26 04:30:28;;;;;;;1999.90;999.90;;;;;;;1.62;63.66;96476.22;5115682;28;20410;-66
2024/01/26 04:32:55;;;;;;;1999.90;999.90;;;;;;;1.59;63.76;96489.13;5115570;28;20044;-66
2024/01/26 04:35:23;;;;;;;1999.90;999.90;;;;;;;1.58;63.92;96471.97;5115432;28;20054;-67
2024/01/26 04:37:51;;;;;;;1999.90;999.90;;;;;;;1.51;63.58;96471.97;5115623;28;20509;-65
2024/01/26 04:40:19;;;;;;;1999.90;999.90;;;;;;;1.56;62.72;96481.44;5115442;28;20040;-67
2024/01/26 04:42:47;;;;;;;1999.90;999.90;;;;;;;1.66;63.07;96488.28;5115369;28;20047;-65
2024/01/26 04:45:14;;;;;;;1999.90;999.90;;;;;;;1.70;63.93;96495.13;5115385;28;20439;-67
2024/01/26 04:47:41;;;;;;;1999.90;999.90;;;;;;;1.70;63.36;96489.97;5115388;28;20054;-64
2024/01/26 04:50:10;;;;;;;1999.90;999.90;;;;;;;1.68;63.78;96489.13;5115291;28;20052;-66
2024/01/26 04:52:38;;;;;;;1999.90;999.90;;;;;;;1.72;64.16;96505.44;5115118;28;20111;-64
2024/01/26 04:55:06;;;;;;;1999.90;999.90;;;;;;;1.79;63.79;96503.69;5114987;28;20052;-67
2024/01/26 04:57:33;;;;;;;1999.90;999.90;;;;;;;1.79;63.46;96493.38;5115333;28;20047;-66
2024/01/26 05:00:02;;;;;;;1999.90;999.90;;;;;;;1.82;63.18;96503.69;5115255;28;20039;-67
2024/01/26 05:02:29;;;;;;;1999.90;999.90;;;;;;;1.81;62.90;96492.53;5115088;28;20047;-67
2024/01/26 05:04:56;;;;;;;1999.90;999.90;;;;;;;1.85;63.16;96504.53;5115244;28;20050;-67
2024/01/26 05:07:23;;;;;;;1999.90;999.90;;;;;;;1.87;63.28;96497.63;5114984;28;20039;-66
2024/01/26 05:09:50;;;;;;;1999.90;999.90;;;;;;;1.91;63.53;96500.22;5114923;28;20082;-64
2024/01/26 05:12:17;;;;;;;1999.90;999.90;;;;;;;1.83;63.59;96497.66;5114654;28;20048;-63
2024/01/26 05:14:45;;;;;;;1999.90;999.90;;;;;;;1.75;63.54;96516.59;5114962;28;20131;-65
2024/01/26 05:17:14;;;;;;;1999.90;999.90;;;;;;;1.64;63.50;96506.34;5114778;28;20047;-67
2024/01/26 05:19:41;;;;;;;1999.90;999.90;;;;;;;1.67;63.28;96505.47;5114696;28;20044;-67
2024/01/26 05:22:08;;;;;;;1999.90;999.90;;;;;;;1.63;63.45;96504.59;5114535;28;20131;-67
2024/01/26 05:24:35;;;;;;;1999.90;999.90;;;;;;;1.54;63.81;96494.34;5113871;28;20158;-65
2024/01/26 05:27:03;;;;;;;1999.90;999.90;;;;;;;1.57;63.66;96508.94;5114499;28;20044;-68
2024/01/26 05:29:30;;;;;;;1999.90;999.90;;;;;;;1.68;63.45;96506.31;5114457;28;20060;-65
2024/01/26 05:31:57;;;;;;;1999.90;999.90;;;;;;;1.75;63.32;96506.28;5114516;28;20047;-67
2024/01/26 05:34:25;;;;;;;1999.90;999.90;;;;;;;1.82;63.46;96507.13;5114443;28;20126;-63
2024/01/26 05:36:53;;;;;;;1999.90;999.90;;;;;;;1.85;63.17;96514.00;5114259;28;20451;-63
2024/01/26 05:39:20;;;;;;;1999.90;999.90;;;;;;;1.89;63.31;96503.66;5114394;28;20093;-68
2024/01/26 05:41:47;;;;;;;1999.90;999.90;;;;;;;1.88;63.34;96517.44;5114345;28;20043;-64
2024/01/26 05:44:15;;;;;;;1999.90;999.90;;;;;;;1.97;62.30;96524.28;5114522;28;20044;-67
2024/01/26 05:46:42;;;;;;;1999.90;999.90;;;;;;;2.06;61.81;96531.13;5114167;28;20052;-66
2024/01/26 05:49:09;;;;;;;1999.90;999.90;;;;;;;2.13;61.88;96530.22;5114088;28;20109;-65
2024/01/26 05:51:37;;;;;;;1999.90;999.90;;;;;;;2.15;62.27;96525.06;5114337;28;20080;-63
2024/01/26 05:54:05;;;;;;;1999.90;999.90;;;;;;;2.13;62.45;96530.22;5113811;28;20104;-65
2024/01/26 05:56:31;;;;;;;1999.90;999.90;;;;;;;2.08;61.02;96537.09;5113794;28;20427;-65
2024/01/26 05:58:58;;;;;;;1999.90;999.90;;;;;;;2.20;61.44;96533.63;5113923;28;20096;-67
2024/01/26 06:01:25;;;;;;;1999.90;999.90;;;;;;;2.25;61.45;96549.09;5113920;28;20071;-63
2024/01/26 06:03:52;;;;;;;1999.90;999.90;;;;;;;2.24;60.87;96534.47;5113836;28;20128;-66
2024/01/26 06:06:19;;;;;;;1999.90;999.90;;;;;;;2.27;61.36;96544.78;5113938;28;20039;-66
2024/01/26 06:08:48;;;;;;;1999.90;999.90;;;;;;;2.30;61.52;96539.59;5113748;28;20447;-67
2024/01/26 06:11:17;;;;;;;1999.90;999.90;;;;;;;2.28;60.67;96533.59;5114131;28;20051;-67
2024/01/26 06:13:44;;;;;;;1999.90;999.90;;;;;;;2.30;61.79;96537.03;5114018;28;20086;-65
2024/01/26 06:16:13;;;;;;;1999.90;999.90;;;;;;;2.24;61.33;96527.59;5113677;28;20055;-64
2024/01/26 06:18:41;;;;;;;1999.90;999.90;;;;;;;2.30;61.51;96534.44;5095404;28;20043;-65
2024/01/26 06:21:09;;;;;;;1999.90;999.90;;;;;;;2.47;61.61;96538.66;5113649;28;20126;-66
2024/01/26 06:23:36;;;;;;;1999.90;999.90;;;;;;;3.66;61.03;96542.00;5113538;28;20047;-67
2024/01/26 06:26:04;;;;;;;1999.90;999.90;;;;;;;4.99;54.93;96542.91;5113480;28;20592;-65
2024/01/26 06:28:31;;;;;;;1999.90;999.90;;;;;;;6.53;51.13;96544.41;5113523;28;20054;-64
2024/01/26 06:30:58;;;;;;;1999.90;999.90;;;;;;;8.16;47.17;96543.88;5113488;28;20078;-66
2024/01/26 06:33:26;;;;;;;1999.90;999.90;;;;;;;9.79;42.45;96559.78;5113422;28;20051;-67
2024/01/26 06:35:53;;;;;;;1999.90;999.90;;;;;;;10.85;39.98;96561.22;5113649;28;20134;-64
2024/01/26 06:38:20;;;;;;;1999.90;999.90;;;;;;;11.73;37.06;96562.06;5113507;28;20051;-64
2024/01/26 06:40:47;;;;;;;1999.90;999.90;;;;;;;12.37;35.80;96559.34;5113314;28;20130;-68
2024/01/26 06:43:16;;;;;;;1999.90;999.90;;;;;;;13.17;33.33;96555.69;5113372;28;20042;-64
2024/01/26 06:45:43;;;;;;;1999.90;999.90;;;;;;;13.99;34.25;96566.59;5113338;28;20050;-63
2024/01/26 06:48:10;;;;;;;1999.90;999.90;;;;;;;15.18;32.89;96562.97;5113399;28;20071;-65
2024/01/26 06:50:38;;;;;;;1999.90;999.90;;;;;;;16.23;30.41;96541.16;5113330;28;20047;-67
2024/01/26 06:53:05;;;;;;;1999.90;999.90;;;;;;;16.84;30.24;96545.34;5113127;28;20055;-64
2024/01/26 06:55:32;;;;;;;1999.90;999.90;;;;;;;17.94;28.28;96546.16;5113498;28;20057;-65
2024/01/26 06:57:59;;;;;;;1999.90;999.90;;;;;;;18.77;27.08;96550.25;5113340;28;20112;-66
2024/01/26 07:00:29;;;;;;;1999.90;999.90;;;;;;;18.93;27.28;96561.47;5113227;28;20122;-65
2024/01/26 07:02:56;;;;;;;1999.90;999.90;;;;;;;19.57;25.92;96562.19;5113233;28;20093;-67
2024/01/26 07:05:23;;;;;;;1999.90;999.90;;;;;;;20.52;24.53;96564.00;5113204;28;20086;-64
2024/01/26 07:07:51;;;;;;;1999.90;999.90;;;;;;;20.86;23.33;96566.63;5113144;28;20047;-67
2024/01/26 07:10:18;;;;;;;1999.90;999.90;;;;;;;20.97;21.81;96560.50;5113032;28;20044;-68
2024/01/26 07:12:45;;;;;;;1999.90;999.90;;;;;;;21.09;22.59;96566.66;5113176;28;20435;-64
2024/01/26 07:15:12;;;;;;;1999.90;999.90;;;;;;;21.88;21.45;96587.84;5112933;28;20386;-66
2024/01/26 07:17:40;;;;;;;1999.90;999.90;;;;;;;21.50;21.31;96584.69;5112853;28;20408;-66
2024/01/26 07:20:09;;;;;;;1999.90;999.90;;;;;;;20.73;22.44;96576.56;5113436;28;20077;-68
2024/01/26 07:22:36;;;;;;;1999.90;999.90;;;;;;;20.94;22.32;96571.38;5113099;28;20089;-63
2024/01/26 07:25:09;;;;;;;1999.90;999.90;;;;;;;20.37;21.67;96574.00;5112880;28;20488;-66
2024/01/26 07:27:36;;;;;;;1999.90;999.90;;;;;;;18.85;23.80;96569.13;5112992;28;20401;-66
2024/01/26 07:30:08;;;;;;;1999.90;999.90;;;;;;;17.76;25.56;96579.97;5113054;28;20048;-67
2024/01/26 07:32:35;;;;;;;1999.90;999.90;;;;;;;16.22;27.09;96569.31;5112914;28;20086;-62
2024/01/26 07:35:04;;;;;;;1999.90;999.90;;;;;;;15.92;27.85;96564.91;5112762;28;20044;-67
2024/01/26 07:37:31;;;;;;;1999.90;999.90;;;;;;;15.91;27.81;96577.25;5112836;28;20397;-66
2024/01/26 07:39:58;;;;;;;1999.90;999.90;;;;;;;16.71;26.99;96566.41;5113082;28;20131;-69
2024/01/26 07:42:25;;;;;;;1999.90;999.90;;;;;;;17.67;25.24;96584.09;5113206;28;20093;-66
2024/01/26 07:44:52;;;;;;;1999.90;999.90;;;;;;;17.35;25.97;96578.28;5112864;28;20046;-65
2024/01/26 07:47:20;;;;;;;1999.90;999.90;;;;;;;17.46;26.20;96585.50;5115139;28;20100;-65
2024/01/26 07:49:48;;;;;;;1999.90;999.90;;;;;;;16.45;26.87;96582.06;5116462;28;20135;-67
2024/01/26 07:52:17;;;;;;;1999.90;999.90;;;;;;;15.89;27.85;96589.69;5116393;28;20044;-65
2024/01/26 07:54:44;;;;;;;1999.90;999.90;;;;;;;15.13;29.00;96578.19;5116242;28;20528;-65
2024/01/26 07:57:11;;;;;;;1999.90;999.90;;;;;;;14.43;29.83;96571.38;5116282;28;20157;-67
2024/01/26 07:59:38;;;;;;;1999.90;999.90;;;;;;;13.63;31.54;96571.00;5116262;28;20054;-66
2024/01/26 08:02:05;;;;;;;1999.90;999.90;;;;;;;13.11;32.13;96569.13;5116220;28;20048;-66
2024/01/26 08:04:32;;;;;;;1999.90;999.90;;;;;;;12.55;32.79;96574.31;5116238;28;20101;-69
2024/01/26 08:06:59;;;;;;;1999.90;999.90;;;;;;;12.14;34.03;96568.25;5116154;28;20044;-63
2024/01/26 08:09:28;;;;;;;1999.90;999.90;;;;;;;11.83;34.69;96570.38;5116080;28;20142;-66
2024/01/26 08:11:55;;;;;;;1999.90;999.90;;;;;;;11.44;35.49;96563.28;5116050;28;20100;-65
2024/01/26 08:14:22;;;;;;;1999.90;999.90;;;;;;;11.01;35.81;96579.78;5116032;28;20052;-65
2024/01/26 08:16:49;;;;;;;1999.90;999.90;;;;;;;11.03;36.14;96571.88;5115820;28;20086;-67
2024/01/26 08:19:16;;;;;;;1999.90;999.90;;;;;;;12.03;35.47;96579.16;5115933;28;20079;-64
2024/01/26 08:21:43;;;;;;;1999.90;999.90;;;;;;;13.82;33.51;96577.94;5115836;28;20127;-67
2024/01/26 08:24:10;;;;;;;1999.90;999.90;;;;;;;15.16;31.36;96591.19;5115777;28;20123;-67
2024/01/26 08:26:39;;;;;;;1999.90;999.90;;;;;;;16.14;28.86;96587.41;5115703;28;20058;-64
2024/01/26 08:29:06;;;;;;;1999.90;999.90;;;;;;;16.25;29.01;96584.09;5115676;28;20043;-68
2024/01/26 08:31:34;;;;;;;1999.90;999.90;;;;;;;15.22;30.44;96589.97;5115720;28;20048;-67
2024/01/26 08:37:23;;;;;;;1999.90;999.90;;;;;;;13.08;33.38;96601.63;5115579;28;20490;-65
2024/01/26 08:39:50;;;;;;;1999.90;999.90;;;;;;;12.57;34.01;96596.09;5115625;28;20436;-65
2024/01/26 08:42:18;;;;;;;1999.90;999.90;;;;;;;12.00;35.18;96589.75;5115616;28;20047;-64
2024/01/26 08:44:45;;;;;;;1999.90;999.90;;;;;;;11.47;35.81;96598.03;5115429;28;20040;-68
2024/01/26 08:47:12;;;;;;;1999.90;999.90;;;;;;;11.33;36.80;96605.59;5115383;28;20139;-63
2024/01/26 08:49:39;;;;;;;1999.90;999.90;;;;;;;11.59;36.41;96601.94;5115590;28;20116;-68
2024/01/26 08:52:07;;;;;;;1999.90;999.90;;;;;;;11.41;36.81;96598.28;5097428;28;20055;-67
2024/01/26 08:54:34;;;;;;;1999.90;999.90;;;;;;;10.93;37.34;96610.66;5115157;28;20124;-65
2024/01/26 08:57:01;;;;;;;1999.90;999.90;;;;;;;10.40;38.03;96616.03;5115001;28;20085;-68
2024/01/26 08:59:30;;;;;;;1999.90;999.90;;;;;;;9.93;38.84;96608.97;5114182;28;20379;-66
2024/01/26 09:01:57;;;;;;;1999.90;999.90;;;;;;;9.58;39.99;96607.47;5115162;28;20486;-66
2024/01/26 09:04:24;;;;;;;1999.90;999.90;;;;;;;9.20;40.83;96612.16;5115215;28;20055;-62
2024/01/26 09:06:51;;;;;;;1999.90;999.90;;;;;;;9.01;41.36;96614.50;5115005;28;20138;-68
2024/01/26 09:09:19;;;;;;;1999.90;999.90;;;;;;;8.79;41.56;96604.72;5115077;28;20071;-65
2024/01/26 09:11:46;;;;;;;1999.90;999.90;;;;;;;8.74;41.56;96623.09;5114920;28;20044;-65
2024/01/26 09:14:14;;;;;;;1999.90;999.90;;;;;;;8.76;41.98;96623.06;5114854;28;20489;-66
2024/01/26 09:16:43;;;;;;;1999.90;999.90;;;;;;;8.73;42.20;96621.38;5114648;28;20545;-64
2024/01/26 09:19:10;;;;;;;1999.90;999.90;;;;;;;8.65;42.65;96625.97;5114836;28;20040;-67
2024/01/26 09:21:37;;;;;;;1999.90;999.90;;;;;;;8.55;42.30;96615.81;5114866;28;20486;-68
2024/01/26 09:24:05;;;;;;;1999.90;999.90;;;;;;;8.59;42.52;96622.66;5114640;28;20550;-65
2024/01/26 09:26:32;;;;;;;1999.90;999.90;;;;;;;8.51;39.68;96618.50;5114571;28;20750;-66
2024/01/26 09:28:59;;;;;;;1999.90;999.90;;;;;;;8.27;42.60;96605.25;5114469;28;20521;-69
2024/01/26 09:31:26;;;;;;;1999.90;999.90;;;;;;;8.25;41.16;96607.06;5114569;28;20126;-65
2024/01/26 09:33:55;;;;;;;1999.90;999.90;;;;;;;8.29;41.54;96614.78;5114356;28;20075;-66
2024/01/26 09:36:22;;;;;;;1999.90;999.90;;;;;;;8.29;39.02;96599.13;5114360;28;20054;-66
2024/01/26 09:38:50;;;;;;;1999.90;999.90;;;;;;;8.38;40.26;96602.38;5114420;28;20051;-67
2024/01/26 09:41:18;;;;;;;1999.90;999.90;;;;;;;8.50;40.22;96604.63;5114365;28;20048;-66
2024/01/26 09:43:45;;;;;;;1999.90;999.90;;;;;;;8.46;41.47;96608.22;5114325;28;20119;-65
2024/01/26 09:46:12;;;;;;;1999.90;999.90;;;;;;;8.53;39.66;96609.75;5114415;28;20090;-64
2024/01/26 09:48:40;;;;;;;1999.90;999.90;;;;;;;8.56;39.19;96603.63;5114273;28;20040;-69
2024/01/26 09:51:09;;;;;;;1999.90;999.90;;;;;;;8.55;39.87;96607.16;5114271;28;20043;-66
2024/01/26 09:53:38;;;;;;;1999.90;999.90;;;;;;;8.60;39.43;96610.47;5113866;28;20493;-65
2024/01/26 09:56:07;;;;;;;1999.90;999.90;;;;;;;8.71;39.53;96597.13;5113957;28;20481;-65
2024/01/26 09:58:35;;;;;;;1999.90;999.90;;;;;;;8.66;40.33;96599.84;5113993;28;20100;-67
2024/01/26 10:01:03;;;;;;;1999.90;999.90;;;;;;;8.47;40.05;96591.69;5113923;28;20047;-64
2024/01/26 10:03:30;;;;;;;1999.90;999.90;;;;;;;8.53;40.77;96596.72;5113790;28;20056;-64
2024/01/26 10:05:57;;;;;;;1999.90;999.90;;;;;;;8.53;40.34;96594.13;5113820;28;20100;-67
2024/01/26 10:08:26;;;;;;;1999.90;999.90;;;;;;;8.68;40.37;96594.59;5095678;28;20135;-67
2024/01/26 10:10:53;;;;;;;1999.90;999.90;;;;;;;8.66;39.45;96586.81;5113506;28;20047;-66
2024/01/26 10:13:21;;;;;;;1999.90;999.90;;;;;;;8.72;39.90;96586.63;5113694;28;20053;-66
2024/01/26 10:15:48;;;;;;;1999.90;999.90;;;;;;;8.70;40.67;96588.44;5113631;28;20469;-65
2024/01/26 10:18:15;;;;;;;1999.90;999.90;;;;;;;8.73;40.94;96592.69;5113753;28;20059;-65
2024/01/26 10:20:42;;;;;;;1999.90;999.90;;;;;;;8.78;40.90;96592.56;5113719;28;20477;-69
2024/01/26 10:23:09;;;;;;;1999.90;999.90;;;;;;;8.79;40.69;96587.28;5113614;28;20055;-66
2024/01/26 10:25:38;;;;;;;1999.90;999.90;;;;;;;8.77;39.60;96589.13;5113575;28;20044;-67
2024/01/26 10:28:09;;;;;;;1999.90;999.90;;;;;;;8.75;40.71;96580.47;5113468;28;20485;-62
2024/01/26 10:30:43;;;;;;;1999.90;999.90;;;;;;;8.54;39.68;96577.59;5113605;28;20440;-66
2024/01/26 10:33:13;;;;;;;1999.90;999.90;;;;;;;8.50;40.40;96575.94;5113549;28;20044;-65
2024/01/26 10:35:45;;;;;;;1999.90;999.90;;;;;;;8.53;40.48;96569.78;5113556;28;20054;-68
2024/01/26 10:38:15;;;;;;;1999.90;999.90;;;;;;;8.59;40.40;96570.50;5113487;28;20048;-65
2024/01/26 10:40:45;;;;;;;1999.90;999.90;;;;;;;8.38;40.90;96565.88;5113376;28;20096;-66
2024/01/26 10:43:13;;;;;;;1999.90;999.90;;;;;;;8.40;41.61;96572.75;5113407;28;20109;-65
2024/01/26 10:45:40;;;;;;;1999.90;999.90;;;;;;;8.43;41.29;96572.66;5113423;28;20052;-66
2024/01/26 10:48:10;;;;;;;1999.90;999.90;;;;;;;8.43;41.49;96575.25;5113366;28;20043;-66
2024/01/26 10:50:38;;;;;;;1999.90;999.90;;;;;;;8.38;40.16;96578.91;5113403;28;20044;-67
2024/01/26 10:53:06;;;;;;;1999.90;999.90;;;;;;;8.23;41.38;96570.63;5113073;28;20284;-69
2024/01/26 10:55:33;;;;;;;1999.90;999.90;;;;;;;8.31;41.23;96566.03;5113214;28;20040;-66
2024/01/26 10:58:02;;;;;;;1999.90;999.90;;;;;;;8.37;40.80;96572.81;5113131;28;20056;-67
2024/01/26 11:00:30;;;;;;;1999.90;999.90;;;;;;;8.39;41.37;96578.00;5113258;28;20047;-67
2024/01/26 11:02:57;;;;;;;1999.90;999.90;;;;;;;8.29;39.84;96569.59;5113415;28;20050;-64
2024/01/26 11:05:24;;;;;;;1999.90;999.90;;;;;;;8.17;40.20;96578.63;5113035;28;20047;-68